sensor_id;sensor_type;location;lat;lon;timestamp;temperature;humidity
758;DHT22;363;48.764;9.172;2022-08-19T00:01:36;22.70;96.70
758;DHT22;363;48.764;9.172;2022-08-19T00:04:06;22.60;96.70
758;DHT22;363;48.764;9.172;2022-08-19T00:06:33;22.60;96.90
758;DHT22;363;48.764;9.172;2022-08-19T00:08:59;22.60;97.00
758;DHT22;363;48.764;9.172;2022-08-19T00:11:28;22.60;96.80
758;DHT22;363;48.764;9.172;2022-08-19T00:13:55;22.40;97.00
758;DHT22;363;48.764;9.172;2022-08-19T00:16:22;22.00;97.10
758;DHT22;363;48.764;9.172;2022-08-19T00:18:47;22.40;97.30
758;DHT22;363;48.764;9.172;2022-08-19T00:21:14;22.50;97.30
758;DHT22;363;48.764;9.172;2022-08-19T00:23:40;22.40;97.70
758;DHT22;363;48.764;9.172;2022-08-19T00:26:06;22.40;97.40
758;DHT22;363;48.764;9.172;2022-08-19T00:28:33;22.50;97.30
758;DHT22;363;48.764;9.172;2022-08-19T00:31:01;22.50;97.20
758;DHT22;363;48.764;9.172;2022-08-19T00:33:27;22.60;97.30
758;DHT22;363;48.764;9.172;2022-08-19T00:35:52;22.60;97.20
758;DHT22;363;48.764;9.172;2022-08-19T00:38:20;22.50;97.10
758;DHT22;363;48.764;9.172;2022-08-19T00:40:47;22.50;97.20
758;DHT22;363;48.764;9.172;2022-08-19T00:43:19;22.40;97.30
758;DHT22;363;48.764;9.172;2022-08-19T00:45:45;22.50;97.40
758;DHT22;363;48.764;9.172;2022-08-19T00:48:11;22.40;97.30
758;DHT22;363;48.764;9.172;2022-08-19T00:50:39;22.40;97.40
758;DHT22;363;48.764;9.172;2022-08-19T00:53:06;22.30;97.60
758;DHT22;363;48.764;9.172;2022-08-19T00:55:33;22.20;97.80
758;DHT22;363;48.764;9.172;2022-08-19T00:58:04;22.20;97.90
758;DHT22;363;48.764;9.172;2022-08-19T01:00:32;22.30;98.00
758;DHT22;363;48.764;9.172;2022-08-19T01:03:00;22.30;98.40
758;DHT22;363;48.764;9.172;2022-08-19T01:05:27;22.30;98.00
758;DHT22;363;48.764;9.172;2022-08-19T01:07:56;22.40;97.90
758;DHT22;363;48.764;9.172;2022-08-19T01:10:25;22.30;97.90
758;DHT22;363;48.764;9.172;2022-08-19T01:12:52;22.30;97.80
758;DHT22;363;48.764;9.172;2022-08-19T01:15:23;22.30;97.90
758;DHT22;363;48.764;9.172;2022-08-19T01:17:49;22.20;98.00
758;DHT22;363;48.764;9.172;2022-08-19T01:20:19;22.20;98.20
758;DHT22;363;48.764;9.172;2022-08-19T01:22:51;22.30;98.00
758;DHT22;363;48.764;9.172;2022-08-19T01:25:20;22.40;97.90
758;DHT22;363;48.764;9.172;2022-08-19T01:27:49;22.30;97.90
758;DHT22;363;48.764;9.172;2022-08-19T01:30:19;22.50;97.90
758;DHT22;363;48.764;9.172;2022-08-19T01:32:46;22.30;97.90
758;DHT22;363;48.764;9.172;2022-08-19T01:35:12;22.50;97.90
758;DHT22;363;48.764;9.172;2022-08-19T01:40:16;22.50;97.90
758;DHT22;363;48.764;9.172;2022-08-19T01:42:42;22.50;97.70
758;DHT22;363;48.764;9.172;2022-08-19T01:45:08;22.50;97.70
758;DHT22;363;48.764;9.172;2022-08-19T01:47:37;22.50;97.70
758;DHT22;363;48.764;9.172;2022-08-19T01:50:04;22.50;97.90
758;DHT22;363;48.764;9.172;2022-08-19T01:52:30;22.50;97.80
758;DHT22;363;48.764;9.172;2022-08-19T01:54:56;22.40;98.00
758;DHT22;363;48.764;9.172;2022-08-19T01:57:22;22.40;98.20
758;DHT22;363;48.764;9.172;2022-08-19T01:59:47;22.30;98.10
758;DHT22;363;48.764;9.172;2022-08-19T02:02:13;22.40;98.20
758;DHT22;363;48.764;9.172;2022-08-19T02:04:39;22.30;98.30
758;DHT22;363;48.764;9.172;2022-08-19T02:07:05;22.30;98.40
758;DHT22;363;48.764;9.172;2022-08-19T02:09:32;22.30;98.20
758;DHT22;363;48.764;9.172;2022-08-19T02:11:57;22.20;98.50
758;DHT22;363;48.764;9.172;2022-08-19T02:14:23;22.20;98.60
758;DHT22;363;48.764;9.172;2022-08-19T02:16:49;22.20;98.70
758;DHT22;363;48.764;9.172;2022-08-19T02:19:15;22.20;98.70
758;DHT22;363;48.764;9.172;2022-08-19T02:21:41;22.50;98.90
758;DHT22;363;48.764;9.172;2022-08-19T02:24:06;22.20;98.80
758;DHT22;363;48.764;9.172;2022-08-19T02:26:32;22.10;98.90
758;DHT22;363;48.764;9.172;2022-08-19T02:28:58;22.20;98.90
758;DHT22;363;48.764;9.172;2022-08-19T02:31:25;22.20;98.90
758;DHT22;363;48.764;9.172;2022-08-19T02:33:53;22.20;98.90
758;DHT22;363;48.764;9.172;2022-08-19T02:36:19;22.20;99.00
758;DHT22;363;48.764;9.172;2022-08-19T02:38:45;22.10;99.20
758;DHT22;363;48.764;9.172;2022-08-19T02:41:17;22.10;99.20
758;DHT22;363;48.764;9.172;2022-08-19T02:43:43;22.10;99.30
758;DHT22;363;48.764;9.172;2022-08-19T02:46:24;22.10;99.40
758;DHT22;363;48.764;9.172;2022-08-19T02:48:51;22.10;99.40
758;DHT22;363;48.764;9.172;2022-08-19T02:51:23;22.10;99.50
758;DHT22;363;48.764;9.172;2022-08-19T02:53:49;22.00;99.50
758;DHT22;363;48.764;9.172;2022-08-19T02:56:14;22.10;99.50
758;DHT22;363;48.764;9.172;2022-08-19T02:58:40;22.10;99.50
758;DHT22;363;48.764;9.172;2022-08-19T03:01:07;22.00;99.70
758;DHT22;363;48.764;9.172;2022-08-19T03:03:33;22.00;99.70
758;DHT22;363;48.764;9.172;2022-08-19T03:06:25;22.00;99.80
758;DHT22;363;48.764;9.172;2022-08-19T03:08:51;22.00;99.90
758;DHT22;363;48.764;9.172;2022-08-19T03:11:23;21.90;99.90
758;DHT22;363;48.764;9.172;2022-08-19T03:13:49;22.00;99.90
758;DHT22;363;48.764;9.172;2022-08-19T03:16:20;21.70;99.90
758;DHT22;363;48.764;9.172;2022-08-19T03:18:46;21.70;99.90
758;DHT22;363;48.764;9.172;2022-08-19T03:21:21;21.70;99.90
758;DHT22;363;48.764;9.172;2022-08-19T03:23:47;21.70;99.90
758;DHT22;363;48.764;9.172;2022-08-19T03:26:12;21.70;99.90
758;DHT22;363;48.764;9.172;2022-08-19T03:28:41;21.70;99.90
758;DHT22;363;48.764;9.172;2022-08-19T03:31:13;21.60;99.90
758;DHT22;363;48.764;9.172;2022-08-19T03:33:39;21.50;99.90
758;DHT22;363;48.764;9.172;2022-08-19T03:36:06;21.60;99.90
758;DHT22;363;48.764;9.172;2022-08-19T03:38:36;21.60;99.90
758;DHT22;363;48.764;9.172;2022-08-19T03:41:04;21.50;99.90
758;DHT22;363;48.764;9.172;2022-08-19T03:43:33;21.50;99.90
758;DHT22;363;48.764;9.172;2022-08-19T03:46:10;21.50;99.90
758;DHT22;363;48.764;9.172;2022-08-19T03:48:36;21.50;99.90
758;DHT22;363;48.764;9.172;2022-08-19T03:51:03;21.50;99.90
758;DHT22;363;48.764;9.172;2022-08-19T03:53:29;21.50;99.90
758;DHT22;363;48.764;9.172;2022-08-19T03:55:56;21.50;99.90
758;DHT22;363;48.764;9.172;2022-08-19T03:58:23;21.50;99.90
758;DHT22;363;48.764;9.172;2022-08-19T04:00:49;21.30;99.90
758;DHT22;363;48.764;9.172;2022-08-19T04:03:15;21.30;99.90
758;DHT22;363;48.764;9.172;2022-08-19T04:05:41;21.40;99.90
758;DHT22;363;48.764;9.172;2022-08-19T04:08:06;21.40;99.90
758;DHT22;363;48.764;9.172;2022-08-19T04:10:39;21.50;99.90
758;DHT22;363;48.764;9.172;2022-08-19T04:13:05;21.40;99.90
758;DHT22;363;48.764;9.172;2022-08-19T04:15:32;21.30;99.90
758;DHT22;363;48.764;9.172;2022-08-19T04:18:04;21.40;99.90
758;DHT22;363;48.764;9.172;2022-08-19T04:20:31;21.40;99.90
758;DHT22;363;48.764;9.172;2022-08-19T04:22:57;21.30;99.90
758;DHT22;363;48.764;9.172;2022-08-19T04:25:22;21.30;99.90
758;DHT22;363;48.764;9.172;2022-08-19T04:27:48;21.40;99.90
758;DHT22;363;48.764;9.172;2022-08-19T04:30:14;21.70;99.90
758;DHT22;363;48.764;9.172;2022-08-19T04:32:40;21.30;99.90
758;DHT22;363;48.764;9.172;2022-08-19T04:35:06;21.20;99.90
758;DHT22;363;48.764;9.172;2022-08-19T04:37:32;21.30;99.90
758;DHT22;363;48.764;9.172;2022-08-19T04:39:59;21.40;99.90
758;DHT22;363;48.764;9.172;2022-08-19T04:42:44;21.30;99.90
758;DHT22;363;48.764;9.172;2022-08-19T04:45:12;21.30;99.90
758;DHT22;363;48.764;9.172;2022-08-19T04:47:40;21.20;99.90
758;DHT22;363;48.764;9.172;2022-08-19T04:50:07;21.30;99.90
758;DHT22;363;48.764;9.172;2022-08-19T04:52:33;21.40;99.90
758;DHT22;363;48.764;9.172;2022-08-19T04:54:59;21.50;99.90
758;DHT22;363;48.764;9.172;2022-08-19T04:57:25;21.60;99.90
758;DHT22;363;48.764;9.172;2022-08-19T04:59:56;21.60;99.90
758;DHT22;363;48.764;9.172;2022-08-19T05:02:22;21.60;99.90
758;DHT22;363;48.764;9.172;2022-08-19T05:04:50;21.60;99.90
758;DHT22;363;48.764;9.172;2022-08-19T05:07:15;21.50;99.90
758;DHT22;363;48.764;9.172;2022-08-19T05:09:41;21.40;99.90
758;DHT22;363;48.764;9.172;2022-08-19T05:12:07;21.40;99.90
758;DHT22;363;48.764;9.172;2022-08-19T05:14:33;21.50;99.90
758;DHT22;363;48.764;9.172;2022-08-19T05:17:00;21.50;99.90
758;DHT22;363;48.764;9.172;2022-08-19T05:19:26;21.50;99.90
758;DHT22;363;48.764;9.172;2022-08-19T05:22:10;21.60;99.90
758;DHT22;363;48.764;9.172;2022-08-19T05:24:54;21.50;99.90
758;DHT22;363;48.764;9.172;2022-08-19T05:27:20;21.40;99.90
758;DHT22;363;48.764;9.172;2022-08-19T05:29:46;21.50;99.90
758;DHT22;363;48.764;9.172;2022-08-19T05:32:11;21.50;99.90
758;DHT22;363;48.764;9.172;2022-08-19T05:34:37;21.50;99.90
758;DHT22;363;48.764;9.172;2022-08-19T05:37:04;21.50;99.90
758;DHT22;363;48.764;9.172;2022-08-19T05:39:32;21.40;99.90
758;DHT22;363;48.764;9.172;2022-08-19T05:42:01;21.50;99.90
758;DHT22;363;48.764;9.172;2022-08-19T05:44:30;21.00;99.90
758;DHT22;363;48.764;9.172;2022-08-19T05:47:00;21.60;99.90
758;DHT22;363;48.764;9.172;2022-08-19T05:49:26;21.50;99.90
758;DHT22;363;48.764;9.172;2022-08-19T05:51:52;21.60;99.90
758;DHT22;363;48.764;9.172;2022-08-19T05:54:19;21.50;99.90
758;DHT22;363;48.764;9.172;2022-08-19T05:56:45;21.60;99.90
758;DHT22;363;48.764;9.172;2022-08-19T05:59:13;21.60;99.90
758;DHT22;363;48.764;9.172;2022-08-19T06:01:42;21.50;99.90
758;DHT22;363;48.764;9.172;2022-08-19T06:04:08;21.60;99.90
758;DHT22;363;48.764;9.172;2022-08-19T06:06:34;21.70;99.90
758;DHT22;363;48.764;9.172;2022-08-19T06:09:05;21.60;99.90
758;DHT22;363;48.764;9.172;2022-08-19T06:14:17;21.70;99.90
758;DHT22;363;48.764;9.172;2022-08-19T06:16:44;21.70;99.90
758;DHT22;363;48.764;9.172;2022-08-19T06:19:16;21.70;99.90
758;DHT22;363;48.764;9.172;2022-08-19T06:21:45;21.80;99.90
758;DHT22;363;48.764;9.172;2022-08-19T06:24:14;21.80;99.90
758;DHT22;363;48.764;9.172;2022-08-19T06:26:43;21.80;99.90
758;DHT22;363;48.764;9.172;2022-08-19T06:29:10;21.80;99.90
758;DHT22;363;48.764;9.172;2022-08-19T06:31:40;21.90;99.90
758;DHT22;363;48.764;9.172;2022-08-19T06:34:06;22.00;99.90
758;DHT22;363;48.764;9.172;2022-08-19T06:36:46;22.10;99.90
758;DHT22;363;48.764;9.172;2022-08-19T06:39:17;22.10;99.90
758;DHT22;363;48.764;9.172;2022-08-19T06:41:46;22.30;99.90
758;DHT22;363;48.764;9.172;2022-08-19T06:44:12;22.20;99.90
758;DHT22;363;48.764;9.172;2022-08-19T06:46:39;22.40;99.90
758;DHT22;363;48.764;9.172;2022-08-19T06:49:06;22.30;99.90
758;DHT22;363;48.764;9.172;2022-08-19T06:51:34;22.30;99.90
758;DHT22;363;48.764;9.172;2022-08-19T06:54:00;22.50;99.90
758;DHT22;363;48.764;9.172;2022-08-19T06:56:29;22.60;99.90
758;DHT22;363;48.764;9.172;2022-08-19T06:59:10;22.50;99.90
758;DHT22;363;48.764;9.172;2022-08-19T07:01:38;22.50;99.90
758;DHT22;363;48.764;9.172;2022-08-19T07:04:06;22.20;99.90
758;DHT22;363;48.764;9.172;2022-08-19T07:06:32;22.30;99.90
758;DHT22;363;48.764;9.172;2022-08-19T07:08:58;22.30;99.90
758;DHT22;363;48.764;9.172;2022-08-19T07:11:23;22.30;99.90
758;DHT22;363;48.764;9.172;2022-08-19T07:13:49;22.10;99.90
758;DHT22;363;48.764;9.172;2022-08-19T07:16:17;22.10;99.90
758;DHT22;363;48.764;9.172;2022-08-19T07:18:45;22.10;99.90
758;DHT22;363;48.764;9.172;2022-08-19T07:21:16;22.10;99.90
758;DHT22;363;48.764;9.172;2022-08-19T07:23:43;22.10;99.90
758;DHT22;363;48.764;9.172;2022-08-19T07:26:12;22.20;99.90
758;DHT22;363;48.764;9.172;2022-08-19T07:28:38;22.30;99.90
758;DHT22;363;48.764;9.172;2022-08-19T07:31:09;22.20;99.90
758;DHT22;363;48.764;9.172;2022-08-19T07:33:35;22.00;99.90
758;DHT22;363;48.764;9.172;2022-08-19T07:36:06;22.10;99.90
758;DHT22;363;48.764;9.172;2022-08-19T07:38:33;22.30;99.90
758;DHT22;363;48.764;9.172;2022-08-19T07:41:00;22.30;99.90
758;DHT22;363;48.764;9.172;2022-08-19T07:43:26;22.40;99.90
758;DHT22;363;48.764;9.172;2022-08-19T07:45:54;22.40;99.90
758;DHT22;363;48.764;9.172;2022-08-19T07:48:26;22.10;99.90
758;DHT22;363;48.764;9.172;2022-08-19T07:50:53;21.90;99.90
758;DHT22;363;48.764;9.172;2022-08-19T07:53:20;21.60;99.90
758;DHT22;363;48.764;9.172;2022-08-19T07:55:46;21.70;99.90
758;DHT22;363;48.764;9.172;2022-08-19T07:58:14;21.70;99.90
758;DHT22;363;48.764;9.172;2022-08-19T08:00:42;21.50;99.90
758;DHT22;363;48.764;9.172;2022-08-19T08:03:08;21.60;99.90
758;DHT22;363;48.764;9.172;2022-08-19T08:05:34;21.60;99.90
758;DHT22;363;48.764;9.172;2022-08-19T08:08:19;21.50;99.90
758;DHT22;363;48.764;9.172;2022-08-19T08:11:08;21.50;99.90
758;DHT22;363;48.764;9.172;2022-08-19T08:13:34;21.40;99.90
758;DHT22;363;48.764;9.172;2022-08-19T08:16:03;21.50;99.90
758;DHT22;363;48.764;9.172;2022-08-19T08:18:29;21.50;99.90
758;DHT22;363;48.764;9.172;2022-08-19T08:20:55;21.60;99.90
758;DHT22;363;48.764;9.172;2022-08-19T08:23:22;21.50;99.90
758;DHT22;363;48.764;9.172;2022-08-19T08:25:51;21.40;99.90
758;DHT22;363;48.764;9.172;2022-08-19T08:28:18;21.30;99.90
758;DHT22;363;48.764;9.172;2022-08-19T08:30:45;21.40;99.90
758;DHT22;363;48.764;9.172;2022-08-19T08:33:11;21.40;99.90
758;DHT22;363;48.764;9.172;2022-08-19T08:35:36;21.50;99.90
758;DHT22;363;48.764;9.172;2022-08-19T08:38:04;21.50;99.90
758;DHT22;363;48.764;9.172;2022-08-19T08:40:45;21.50;99.90
758;DHT22;363;48.764;9.172;2022-08-19T08:43:35;21.40;99.90
758;DHT22;363;48.764;9.172;2022-08-19T08:46:07;21.50;99.90
758;DHT22;363;48.764;9.172;2022-08-19T08:48:46;21.20;99.90
758;DHT22;363;48.764;9.172;2022-08-19T08:51:20;21.10;99.90
758;DHT22;363;48.764;9.172;2022-08-19T08:53:50;21.10;99.90
758;DHT22;363;48.764;9.172;2022-08-19T08:56:16;21.20;99.90
758;DHT22;363;48.764;9.172;2022-08-19T08:58:59;21.30;99.90
758;DHT22;363;48.764;9.172;2022-08-19T09:01:27;21.30;99.90
758;DHT22;363;48.764;9.172;2022-08-19T09:03:53;21.40;99.90
758;DHT22;363;48.764;9.172;2022-08-19T09:09:04;21.60;99.90
758;DHT22;363;48.764;9.172;2022-08-19T09:11:50;21.70;99.90
758;DHT22;363;48.764;9.172;2022-08-19T09:16:45;21.50;99.90
758;DHT22;363;48.764;9.172;2022-08-19T09:19:11;21.60;99.90
758;DHT22;363;48.764;9.172;2022-08-19T09:21:37;21.70;99.90
758;DHT22;363;48.764;9.172;2022-08-19T09:24:04;21.70;99.90
758;DHT22;363;48.764;9.172;2022-08-19T09:26:31;21.70;99.90
758;DHT22;363;48.764;9.172;2022-08-19T09:28:58;21.80;99.90
758;DHT22;363;48.764;9.172;2022-08-19T09:31:28;21.90;99.90
758;DHT22;363;48.764;9.172;2022-08-19T09:33:55;21.80;99.90
758;DHT22;363;48.764;9.172;2022-08-19T09:36:26;21.90;99.90
758;DHT22;363;48.764;9.172;2022-08-19T09:38:54;21.90;99.90
758;DHT22;363;48.764;9.172;2022-08-19T09:41:22;21.80;99.90
758;DHT22;363;48.764;9.172;2022-08-19T09:43:50;21.80;99.90
758;DHT22;363;48.764;9.172;2022-08-19T09:46:18;21.90;99.90
758;DHT22;363;48.764;9.172;2022-08-19T09:48:45;22.00;99.90
758;DHT22;363;48.764;9.172;2022-08-19T09:51:16;22.10;99.90
758;DHT22;363;48.764;9.172;2022-08-19T09:53:46;22.20;99.90
758;DHT22;363;48.764;9.172;2022-08-19T09:56:12;22.20;99.90
758;DHT22;363;48.764;9.172;2022-08-19T09:58:39;22.20;99.90
758;DHT22;363;48.764;9.172;2022-08-19T10:01:07;22.20;99.90
758;DHT22;363;48.764;9.172;2022-08-19T10:03:34;22.30;99.90
758;DHT22;363;48.764;9.172;2022-08-19T10:06:03;22.40;99.90
758;DHT22;363;48.764;9.172;2022-08-19T10:08:34;22.40;99.90
758;DHT22;363;48.764;9.172;2022-08-19T10:11:01;22.50;99.90
758;DHT22;363;48.764;9.172;2022-08-19T10:13:28;22.50;99.90
758;DHT22;363;48.764;9.172;2022-08-19T10:15:56;22.50;99.90
758;DHT22;363;48.764;9.172;2022-08-19T10:18:27;22.50;99.90
758;DHT22;363;48.764;9.172;2022-08-19T10:21:01;22.70;99.90
758;DHT22;363;48.764;9.172;2022-08-19T10:23:27;22.60;99.90
758;DHT22;363;48.764;9.172;2022-08-19T10:25:59;22.20;99.90
758;DHT22;363;48.764;9.172;2022-08-19T10:28:25;22.60;99.90
758;DHT22;363;48.764;9.172;2022-08-19T10:30:50;22.70;99.90
758;DHT22;363;48.764;9.172;2022-08-19T10:33:16;22.90;99.90
758;DHT22;363;48.764;9.172;2022-08-19T10:35:42;22.80;99.90
758;DHT22;363;48.764;9.172;2022-08-19T10:38:07;22.80;99.90
758;DHT22;363;48.764;9.172;2022-08-19T10:40:33;22.90;99.90
758;DHT22;363;48.764;9.172;2022-08-19T10:42:58;23.00;99.90
758;DHT22;363;48.764;9.172;2022-08-19T10:45:24;23.10;99.90
758;DHT22;363;48.764;9.172;2022-08-19T10:47:52;23.00;99.90
758;DHT22;363;48.764;9.172;2022-08-19T10:50:18;23.10;99.90
758;DHT22;363;48.764;9.172;2022-08-19T10:53:07;23.30;99.90
758;DHT22;363;48.764;9.172;2022-08-19T10:55:34;23.40;99.90
758;DHT22;363;48.764;9.172;2022-08-19T10:58:20;23.60;99.90
758;DHT22;363;48.764;9.172;2022-08-19T11:00:52;23.50;99.90
758;DHT22;363;48.764;9.172;2022-08-19T11:03:19;23.70;99.90
758;DHT22;363;48.764;9.172;2022-08-19T11:05:44;23.50;99.90
758;DHT22;363;48.764;9.172;2022-08-19T11:08:10;23.40;99.90
758;DHT22;363;48.764;9.172;2022-08-19T11:10:41;23.40;99.90
758;DHT22;363;48.764;9.172;2022-08-19T11:13:06;23.40;99.90
758;DHT22;363;48.764;9.172;2022-08-19T11:15:32;23.20;99.90
758;DHT22;363;48.764;9.172;2022-08-19T11:17:58;23.20;99.90
758;DHT22;363;48.764;9.172;2022-08-19T11:20:24;23.20;99.90
758;DHT22;363;48.764;9.172;2022-08-19T11:22:51;23.20;99.90
758;DHT22;363;48.764;9.172;2022-08-19T11:25:17;23.30;99.90
758;DHT22;363;48.764;9.172;2022-08-19T11:27:43;23.40;99.60
758;DHT22;363;48.764;9.172;2022-08-19T11:30:11;23.40;99.70
758;DHT22;363;48.764;9.172;2022-08-19T11:32:37;23.70;99.50
758;DHT22;363;48.764;9.172;2022-08-19T11:35:02;23.90;99.10
758;DHT22;363;48.764;9.172;2022-08-19T11:37:28;23.90;98.50
758;DHT22;363;48.764;9.172;2022-08-19T11:39:54;24.00;98.40
758;DHT22;363;48.764;9.172;2022-08-19T11:42:19;23.90;98.80
758;DHT22;363;48.764;9.172;2022-08-19T11:45:04;24.10;98.40
758;DHT22;363;48.764;9.172;2022-08-19T11:47:30;24.10;98.30
758;DHT22;363;48.764;9.172;2022-08-19T11:49:56;24.20;97.60
758;DHT22;363;48.764;9.172;2022-08-19T11:52:22;24.20;97.40
758;DHT22;363;48.764;9.172;2022-08-19T11:54:47;25.00;97.40
758;DHT22;363;48.764;9.172;2022-08-19T11:57:13;24.40;96.80
758;DHT22;363;48.764;9.172;2022-08-19T11:59:42;24.40;96.70
758;DHT22;363;48.764;9.172;2022-08-19T12:02:08;24.50;96.40
758;DHT22;363;48.764;9.172;2022-08-19T12:04:34;24.50;96.30
758;DHT22;363;48.764;9.172;2022-08-19T12:07:00;24.10;95.60
758;DHT22;363;48.764;9.172;2022-08-19T12:09:25;24.70;95.40
758;DHT22;363;48.764;9.172;2022-08-19T12:11:51;25.20;95.70
758;DHT22;363;48.764;9.172;2022-08-19T12:14:16;24.70;95.60
758;DHT22;363;48.764;9.172;2022-08-19T12:16:44;24.50;95.20
758;DHT22;363;48.764;9.172;2022-08-19T12:19:11;24.30;95.80
758;DHT22;363;48.764;9.172;2022-08-19T12:21:37;24.20;95.90
758;DHT22;363;48.764;9.172;2022-08-19T12:24:05;24.20;96.40
758;DHT22;363;48.764;9.172;2022-08-19T12:26:30;23.40;96.00
758;DHT22;363;48.764;9.172;2022-08-19T12:28:57;24.00;96.20
758;DHT22;363;48.764;9.172;2022-08-19T12:31:25;24.10;97.00
758;DHT22;363;48.764;9.172;2022-08-19T12:33:51;24.20;96.90
758;DHT22;363;48.764;9.172;2022-08-19T12:36:18;24.20;96.40
758;DHT22;363;48.764;9.172;2022-08-19T12:38:44;24.30;96.50
758;DHT22;363;48.764;9.172;2022-08-19T12:41:12;24.20;96.10
758;DHT22;363;48.764;9.172;2022-08-19T12:43:38;24.30;96.70
758;DHT22;363;48.764;9.172;2022-08-19T12:46:04;24.30;96.90
758;DHT22;363;48.764;9.172;2022-08-19T12:48:31;24.20;97.40
758;DHT22;363;48.764;9.172;2022-08-19T12:50:57;24.10;97.50
758;DHT22;363;48.764;9.172;2022-08-19T12:53:23;24.10;97.60
758;DHT22;363;48.764;9.172;2022-08-19T12:55:55;24.20;97.80
758;DHT22;363;48.764;9.172;2022-08-19T12:58:21;24.20;97.90
758;DHT22;363;48.764;9.172;2022-08-19T13:00:47;24.40;98.00
758;DHT22;363;48.764;9.172;2022-08-19T13:03:14;24.40;98.20
758;DHT22;363;48.764;9.172;2022-08-19T13:05:40;24.50;98.20
758;DHT22;363;48.764;9.172;2022-08-19T13:08:06;24.60;98.50
758;DHT22;363;48.764;9.172;2022-08-19T13:10:34;24.80;98.70
758;DHT22;363;48.764;9.172;2022-08-19T13:13:02;24.80;98.50
758;DHT22;363;48.764;9.172;2022-08-19T13:15:29;24.50;98.60
758;DHT22;363;48.764;9.172;2022-08-19T13:17:58;24.40;99.80
758;DHT22;363;48.764;9.172;2022-08-19T13:20:23;24.40;99.90
758;DHT22;363;48.764;9.172;2022-08-19T13:22:49;24.30;99.90
758;DHT22;363;48.764;9.172;2022-08-19T13:25:16;24.20;99.90
758;DHT22;363;48.764;9.172;2022-08-19T13:27:43;24.10;99.90
758;DHT22;363;48.764;9.172;2022-08-19T13:30:11;23.80;99.90
758;DHT22;363;48.764;9.172;2022-08-19T13:32:57;23.70;99.90
758;DHT22;363;48.764;9.172;2022-08-19T13:35:49;23.40;99.90
758;DHT22;363;48.764;9.172;2022-08-19T13:38:21;23.30;99.90
758;DHT22;363;48.764;9.172;2022-08-19T13:40:50;23.20;99.90
758;DHT22;363;48.764;9.172;2022-08-19T13:43:17;23.10;99.90
758;DHT22;363;48.764;9.172;2022-08-19T13:45:43;23.10;99.90
758;DHT22;363;48.764;9.172;2022-08-19T13:48:09;23.00;99.90
758;DHT22;363;48.764;9.172;2022-08-19T13:50:44;22.90;99.90
758;DHT22;363;48.764;9.172;2022-08-19T13:53:12;22.90;99.90
758;DHT22;363;48.764;9.172;2022-08-19T13:55:39;22.70;99.90
758;DHT22;363;48.764;9.172;2022-08-19T13:58:05;22.70;99.90
758;DHT22;363;48.764;9.172;2022-08-19T14:00:34;22.70;99.90
758;DHT22;363;48.764;9.172;2022-08-19T14:03:00;22.60;99.90
758;DHT22;363;48.764;9.172;2022-08-19T14:05:27;22.50;99.90
758;DHT22;363;48.764;9.172;2022-08-19T14:07:53;22.40;99.90
758;DHT22;363;48.764;9.172;2022-08-19T14:10:20;22.30;99.90
758;DHT22;363;48.764;9.172;2022-08-19T14:12:46;22.30;99.90
758;DHT22;363;48.764;9.172;2022-08-19T14:15:12;22.10;99.90
758;DHT22;363;48.764;9.172;2022-08-19T14:17:40;22.00;99.90
758;DHT22;363;48.764;9.172;2022-08-19T14:20:08;22.00;99.90
758;DHT22;363;48.764;9.172;2022-08-19T14:22:36;22.00;99.90
758;DHT22;363;48.764;9.172;2022-08-19T14:25:04;21.90;99.90
758;DHT22;363;48.764;9.172;2022-08-19T14:27:32;21.80;99.90
758;DHT22;363;48.764;9.172;2022-08-19T14:29:58;21.90;99.90
758;DHT22;363;48.764;9.172;2022-08-19T14:32:24;21.90;99.90
758;DHT22;363;48.764;9.172;2022-08-19T14:34:53;21.90;99.90
758;DHT22;363;48.764;9.172;2022-08-19T14:37:20;22.00;99.90
758;DHT22;363;48.764;9.172;2022-08-19T14:39:47;22.00;99.90
758;DHT22;363;48.764;9.172;2022-08-19T14:42:13;22.00;99.90
758;DHT22;363;48.764;9.172;2022-08-19T14:44:42;22.10;99.90
758;DHT22;363;48.764;9.172;2022-08-19T14:47:08;22.30;99.90
758;DHT22;363;48.764;9.172;2022-08-19T14:49:34;22.40;99.90
758;DHT22;363;48.764;9.172;2022-08-19T14:52:00;22.60;99.90
758;DHT22;363;48.764;9.172;2022-08-19T14:54:25;22.70;99.90
758;DHT22;363;48.764;9.172;2022-08-19T14:56:51;22.80;99.90
758;DHT22;363;48.764;9.172;2022-08-19T14:59:17;22.80;99.90
758;DHT22;363;48.764;9.172;2022-08-19T15:01:42;22.90;99.90
758;DHT22;363;48.764;9.172;2022-08-19T15:04:08;22.90;99.90
758;DHT22;363;48.764;9.172;2022-08-19T15:06:34;23.00;99.90
758;DHT22;363;48.764;9.172;2022-08-19T15:09:00;23.00;99.90
758;DHT22;363;48.764;9.172;2022-08-19T15:11:27;23.10;99.90
758;DHT22;363;48.764;9.172;2022-08-19T15:13:54;23.20;99.90
758;DHT22;363;48.764;9.172;2022-08-19T15:16:20;23.30;99.90
758;DHT22;363;48.764;9.172;2022-08-19T15:18:50;23.40;99.90
758;DHT22;363;48.764;9.172;2022-08-19T15:21:16;23.60;99.90
758;DHT22;363;48.764;9.172;2022-08-19T15:23:44;23.60;99.90
758;DHT22;363;48.764;9.172;2022-08-19T15:26:10;23.60;99.90
758;DHT22;363;48.764;9.172;2022-08-19T15:28:36;23.80;99.90
758;DHT22;363;48.764;9.172;2022-08-19T15:31:03;24.00;99.90
758;DHT22;363;48.764;9.172;2022-08-19T15:33:32;24.10;99.90
758;DHT22;363;48.764;9.172;2022-08-19T15:36:00;24.20;99.90
758;DHT22;363;48.764;9.172;2022-08-19T15:38:26;24.10;99.90
758;DHT22;363;48.764;9.172;2022-08-19T15:40:52;24.10;99.90
758;DHT22;363;48.764;9.172;2022-08-19T15:43:19;24.10;99.90
758;DHT22;363;48.764;9.172;2022-08-19T15:45:46;24.20;99.90
758;DHT22;363;48.764;9.172;2022-08-19T15:48:12;24.30;99.90
758;DHT22;363;48.764;9.172;2022-08-19T15:50:38;24.40;99.90
758;DHT22;363;48.764;9.172;2022-08-19T15:53:07;24.30;99.90
758;DHT22;363;48.764;9.172;2022-08-19T15:55:36;23.70;99.90
758;DHT22;363;48.764;9.172;2022-08-19T15:58:08;23.90;99.90
758;DHT22;363;48.764;9.172;2022-08-19T16:00:52;23.90;99.90
758;DHT22;363;48.764;9.172;2022-08-19T16:03:36;23.90;99.90
758;DHT22;363;48.764;9.172;2022-08-19T16:06:21;23.90;99.90
758;DHT22;363;48.764;9.172;2022-08-19T16:08:54;24.00;99.90
758;DHT22;363;48.764;9.172;2022-08-19T16:11:23;24.10;99.90
758;DHT22;363;48.764;9.172;2022-08-19T16:13:51;24.30;99.90
758;DHT22;363;48.764;9.172;2022-08-19T16:16:21;24.30;99.90
758;DHT22;363;48.764;9.172;2022-08-19T16:18:47;24.30;99.90
758;DHT22;363;48.764;9.172;2022-08-19T16:21:13;24.30;99.90
758;DHT22;363;48.764;9.172;2022-08-19T16:23:42;24.40;99.90
758;DHT22;363;48.764;9.172;2022-08-19T16:26:09;24.40;99.90
758;DHT22;363;48.764;9.172;2022-08-19T16:28:34;24.20;99.90
758;DHT22;363;48.764;9.172;2022-08-19T16:31:00;24.10;99.90
758;DHT22;363;48.764;9.172;2022-08-19T16:33:25;24.00;99.90
758;DHT22;363;48.764;9.172;2022-08-19T16:35:51;23.90;99.90
758;DHT22;363;48.764;9.172;2022-08-19T16:38:17;23.60;99.90
758;DHT22;363;48.764;9.172;2022-08-19T16:40:43;23.50;99.90
758;DHT22;363;48.764;9.172;2022-08-19T16:43:08;23.40;99.90
758;DHT22;363;48.764;9.172;2022-08-19T16:45:34;23.30;99.90
758;DHT22;363;48.764;9.172;2022-08-19T16:48:00;23.20;99.90
758;DHT22;363;48.764;9.172;2022-08-19T16:50:26;23.20;99.90